Time;durP1;ratioP1;P1;durP2;ratioP2;P2;SDS_P1;SDS_P2;PMS_P1;PMS_P2;Temp;Humidity;BMP_temperature;BMP_pressure;BME280_temperature;BME280_humidity;BME280_pressure;Samples;Min_cycle;Max_cycle;Signal;HPM_P1;HPM_P2
2022/12/30 00:00:58;;;;;;;2.50;0.80;;;7.90;86.90;;;;;;5133230;28;20058;-74
2022/12/30 00:03:24;;;;;;;9.32;1.77;;;7.90;86.90;;;;;;5134166;28;20045;-75
2022/12/30 00:05:50;;;;;;;8.95;1.38;;;7.90;87.00;;;;;;5133148;28;20011;-74
2022/12/30 00:11:00;;;;;;;3.72;1.42;;;7.90;87.20;;;;;;5133571;28;20047;-74
2022/12/30 00:34:31;;;;;;;2.75;0.93;;;7.80;87.90;;;;;;5134120;28;20039;-74
2022/12/30 00:36:57;;;;;;;4.75;0.77;;;7.80;87.90;;;;;;5133836;28;20032;-73
2022/12/30 00:39:24;;;;;;;3.63;0.80;;;7.70;88.00;;;;;;5133829;28;20024;-74
2022/12/30 00:44:34;;;;;;;10.40;1.88;;;7.70;88.00;;;;;;5133246;28;20051;-74
2022/12/30 00:47:00;;;;;;;6.97;1.35;;;7.80;88.00;;;;;;5115860;28;20028;-74
2022/12/30 00:57:38;;;;;;;5.82;1.52;;;7.80;87.80;;;;;;5133777;28;20073;-75
2022/12/30 01:00:10;;;;;;;6.93;1.65;;;7.80;87.80;;;;;;5132643;28;20024;-74
2022/12/30 01:02:36;;;;;;;4.22;1.30;;;7.80;87.80;;;;;;5133580;28;20453;-74
2022/12/30 01:05:01;;;;;;;4.65;1.38;;;7.80;87.80;;;;;;5133565;28;20024;-74
2022/12/30 01:07:28;;;;;;;3.15;1.23;;;7.70;87.70;;;;;;5115486;28;20031;-74
2022/12/30 01:09:55;;;;;;;5.30;1.55;;;7.70;88.60;;;;;;5135269;28;20055;-74
2022/12/30 01:12:21;;;;;;;5.97;1.50;;;7.70;87.90;;;;;;5137420;28;20031;-74
2022/12/30 01:14:49;;;;;;;5.05;1.05;;;7.70;87.80;;;;;;5136337;28;20031;-74
2022/12/30 01:17:19;;;;;;;8.93;1.30;;;7.70;87.90;;;;;;5137244;28;20030;-74
2022/12/30 01:19:44;;;;;;;6.15;1.52;;;7.70;87.80;;;;;;5137269;28;20020;-74
2022/12/30 01:22:10;;;;;;;4.38;1.02;;;7.60;88.00;;;;;;5102175;28;20074;-74
2022/12/30 01:24:36;;;;;;;5.82;1.30;;;7.60;88.10;;;;;;5137204;28;20020;-74
2022/12/30 01:27:02;;;;;;;10.00;1.63;;;7.60;88.20;;;;;;5136114;28;20024;-74
2022/12/30 01:29:39;;;;;;;6.57;1.30;;;7.60;88.30;;;;;;5137133;28;20016;-73
2022/12/30 01:32:13;;;;;;;9.35;1.60;;;7.50;88.50;;;;;;5136097;28;20049;-74
2022/12/30 01:34:40;;;;;;;8.20;1.40;;;7.50;88.80;;;;;;5137070;28;20032;-74
2022/12/30 01:37:06;;;;;;;8.30;1.30;;;7.40;88.70;;;;;;5136882;28;20026;-74
2022/12/30 01:39:32;;;;;;;4.13;0.90;;;7.40;88.80;;;;;;5137075;28;20031;-74
2022/12/30 01:41:58;;;;;;;7.10;1.45;;;7.40;89.00;;;;;;5136848;28;20030;-73
2022/12/30 01:44:48;;;;;;;5.43;1.35;;;7.40;89.10;;;;;;5135781;28;20063;-73
2022/12/30 01:47:36;;;;;;;9.98;1.50;;;7.40;89.10;;;;;;5136740;28;20057;-74
2022/12/30 01:50:11;;;;;;;4.78;1.38;;;7.30;89.30;;;;;;5136761;28;20020;-74
2022/12/30 01:52:43;;;;;;;9.07;1.85;;;7.30;89.40;;;;;;5136857;28;20027;-73
2022/12/30 01:55:14;;;;;;;6.55;1.27;;;7.30;89.50;;;;;;5135651;28;20050;-73
2022/12/30 01:57:43;;;;;;;7.03;1.37;;;7.30;89.60;;;;;;5136660;28;20023;-73
2022/12/30 02:00:10;;;;;;;4.38;1.77;;;7.20;89.60;;;;;;5135539;28;20020;-73
2022/12/30 02:02:36;;;;;;;8.38;1.45;;;7.20;89.80;;;;;;5135700;28;20031;-73
2022/12/30 02:05:03;;;;;;;6.82;1.85;;;7.20;89.80;;;;;;5135497;28;20028;-73
2022/12/30 02:07:34;;;;;;;2.83;1.33;;;7.20;89.70;;;;;;5118460;28;20027;-73
2022/12/30 02:10:00;;;;;;;6.50;1.40;;;7.10;89.80;;;;;;5135540;28;20054;-74
2022/12/30 02:12:25;;;;;;;5.65;1.30;;;7.10;89.80;;;;;;5135334;28;20114;-73
2022/12/30 02:14:55;;;;;;;6.05;1.50;;;7.00;89.70;;;;;;5118234;28;20027;-73
2022/12/30 02:17:40;;;;;;;5.47;1.35;;;6.90;90.00;;;;;;5136123;28;20023;-74
2022/12/30 02:20:19;;;;;;;7.20;1.40;;;6.90;90.20;;;;;;5135127;28;20035;-74
2022/12/30 02:23:13;;;;;;;6.80;1.58;;;6.90;90.20;;;;;;5134846;28;20048;-73
2022/12/30 02:26:17;;;;;;;2.63;1.08;;;6.80;90.10;;;;;;5135080;28;20066;-74
2022/12/30 02:29:12;;;;;;;9.05;1.83;;;6.70;90.20;;;;;;5135917;28;20023;-74
2022/12/30 02:31:44;;;;;;;3.70;1.45;;;6.70;90.30;;;;;;5134889;28;20057;-73
2022/12/30 02:34:41;;;;;;;8.82;2.30;;;6.70;90.30;;;;;;5134869;28;20091;-74
2022/12/30 02:37:27;;;;;;;9.07;1.25;;;6.70;90.40;;;;;;5134680;28;20067;-74
2022/12/30 02:40:25;;;;;;;1.73;0.60;;;6.60;90.50;;;;;;5135783;28;20026;-73
2022/12/30 02:45:51;;;;;;;5.15;1.65;;;6.60;90.90;;;;;;5135661;28;20061;-74
2022/12/30 02:48:23;;;;;;;9.13;1.33;;;6.50;90.90;;;;;;5135614;28;20043;-73
2022/12/30 02:53:38;;;;;;;4.82;1.30;;;6.50;91.00;;;;;;5135508;28;20042;-74
2022/12/30 02:56:04;;;;;;;7.50;1.42;;;6.50;91.40;;;;;;5134276;28;20028;-74
2022/12/30 02:58:34;;;;;;;8.70;1.23;;;6.50;91.20;;;;;;5117305;28;20047;-74
2022/12/30 03:04:16;;;;;;;3.45;1.20;;;6.40;91.10;;;;;;5135308;28;20053;-74
2022/12/30 03:06:52;;;;;;;7.13;1.00;;;6.40;91.30;;;;;;5127478;28;20043;-74
2022/12/30 03:11:12;;;;;;;8.80;1.55;;;6.40;91.30;;;;;;5135100;28;20031;-74
2022/12/30 03:12:31;;;;;;;2.67;0.80;;;6.40;91.30;;;;;;5135098;28;20487;-74
2022/12/30 03:15:03;;;;;;;2.35;0.90;;;6.40;91.40;;;;;;5134833;28;20027;-74
2022/12/30 03:17:36;;;;;;;3.38;1.17;;;6.40;91.40;;;;;;5134986;28;20039;-74
2022/12/30 03:20:13;;;;;;;5.97;1.85;;;6.40;91.40;;;;;;5134992;27;20026;-74
2022/12/30 03:28:14;;;;;;;3.58;1.00;;;6.30;91.40;;;;;;5134916;28;20026;-74
2022/12/30 03:30:44;;;;;;;7.28;1.45;;;6.30;91.50;;;;;;5134724;28;20019;-74
2022/12/30 03:33:10;;;;;;;5.72;1.10;;;6.30;91.50;;;;;;5133930;28;20015;-74
2022/12/30 03:35:42;;;;;;;9.27;1.67;;;6.30;91.40;;;;;;5133666;28;20050;-73
2022/12/30 03:38:09;;;;;;;8.87;0.77;;;6.30;91.40;;;;;;5134655;28;20041;-74
2022/12/30 03:40:38;;;;;;;9.35;1.88;;;6.20;91.40;;;;;;5134529;28;20019;-74
2022/12/30 03:43:05;;;;;;;9.95;1.52;;;6.20;91.50;;;;;;5134541;28;20034;-74
2022/12/30 03:45:31;;;;;;;5.80;1.45;;;6.20;91.40;;;;;;5133518;28;20016;-73
2022/12/30 03:47:57;;;;;;;4.78;0.82;;;6.20;91.40;;;;;;5133405;28;20039;-74
2022/12/30 03:50:22;;;;;;;3.33;0.88;;;6.20;91.50;;;;;;5134400;28;20019;-74
2022/12/30 03:52:48;;;;;;;5.70;1.42;;;6.20;91.60;;;;;;5134392;28;20368;-73
2022/12/30 03:55:14;;;;;;;4.97;1.50;;;6.20;91.60;;;;;;5134301;28;20049;-74
2022/12/30 03:57:40;;;;;;;5.63;1.30;;;6.20;91.40;;;;;;5134234;28;20095;-73
2022/12/30 04:00:08;;;;;;;10.13;1.00;;;6.10;91.60;;;;;;5134288;28;20020;-74
2022/12/30 04:02:35;;;;;;;6.10;1.10;;;6.20;91.60;;;;;;5134391;28;20023;-73
2022/12/30 04:05:00;;;;;;;3.00;0.85;;;6.10;91.60;;;;;;5133221;28;20027;-73
2022/12/30 04:07:26;;;;;;;7.82;1.30;;;6.20;91.70;;;;;;5134279;28;20023;-74
2022/12/30 04:09:52;;;;;;;6.15;1.17;;;6.10;91.60;;;;;;5116103;28;20036;-74
2022/12/30 04:12:17;;;;;;;5.15;1.83;;;6.10;91.70;;;;;;5133088;28;20039;-74
2022/12/30 04:14:43;;;;;;;6.13;1.40;;;6.10;91.80;;;;;;5133031;28;20040;-74
2022/12/30 04:17:09;;;;;;;7.63;1.58;;;6.20;91.80;;;;;;5115970;28;20034;-74
2022/12/30 04:19:34;;;;;;;8.70;1.38;;;6.10;91.90;;;;;;5132985;28;20023;-74
2022/12/30 04:22:00;;;;;;;4.75;1.67;;;6.10;91.80;;;;;;5098977;28;20043;-74
2022/12/30 04:24:25;;;;;;;6.35;1.88;;;6.20;91.90;;;;;;5133080;28;20024;-74
2022/12/30 04:26:51;;;;;;;2.90;1.38;;;6.20;91.70;;;;;;5099104;28;20463;-74
2022/12/30 04:29:17;;;;;;;5.63;1.42;;;6.10;91.80;;;;;;5133902;28;20079;-73
2022/12/30 04:31:42;;;;;;;9.63;1.50;;;6.20;92.10;;;;;;5132989;28;20406;-74
2022/12/30 04:34:08;;;;;;;12.13;2.53;;;6.20;92.00;;;;;;5133874;28;20019;-74
2022/12/30 04:36:34;;;;;;;8.07;1.40;;;6.20;92.00;;;;;;5132855;28;20515;-74
2022/12/30 04:38:59;;;;;;;7.72;1.20;;;6.20;92.00;;;;;;5133974;28;20031;-73
2022/12/30 04:41:25;;;;;;;5.57;1.52;;;6.20;92.00;;;;;;5132787;28;20031;-74
2022/12/30 04:43:51;;;;;;;5.20;1.30;;;6.20;92.20;;;;;;5135569;28;20038;-73
2022/12/30 04:46:16;;;;;;;4.60;1.00;;;6.20;92.10;;;;;;5137949;28;20045;-74
2022/12/30 04:48:42;;;;;;;5.90;1.00;;;6.20;92.20;;;;;;5136872;28;20031;-73
2022/12/30 04:51:08;;;;;;;5.50;1.25;;;6.20;92.20;;;;;;5137833;28;20083;-74
2022/12/30 04:53:33;;;;;;;4.30;1.20;;;6.20;92.30;;;;;;5136883;28;20036;-74
2022/12/30 04:55:59;;;;;;;7.18;1.30;;;6.20;92.20;;;;;;5137700;28;20079;-73
2022/12/30 04:58:25;;;;;;;5.40;1.25;;;6.20;92.30;;;;;;5137682;28;20087;-74
2022/12/30 05:00:52;;;;;;;9.68;2.13;;;6.20;92.20;;;;;;5136636;28;20035;-74
2022/12/30 05:03:18;;;;;;;5.55;1.27;;;6.20;92.20;;;;;;5119617;28;20027;-74
2022/12/30 05:05:44;;;;;;;3.83;1.25;;;6.20;92.30;;;;;;5137590;28;20040;-74
2022/12/30 05:08:09;;;;;;;9.10;2.33;;;6.20;92.30;;;;;;5136437;28;20031;-74
2022/12/30 05:10:39;;;;;;;3.33;1.05;;;6.20;92.30;;;;;;5137484;28;20035;-74
2022/12/30 05:13:05;;;;;;;8.70;1.58;;;6.20;92.20;;;;;;5137424;28;20031;-73
2022/12/30 05:15:31;;;;;;;8.20;1.35;;;6.20;92.10;;;;;;5136380;28;20032;-74
2022/12/30 05:17:57;;;;;;;6.03;1.08;;;6.20;92.20;;;;;;5136389;28;20030;-74
2022/12/30 05:20:22;;;;;;;14.00;2.72;;;6.20;92.20;;;;;;5119426;28;20091;-74
2022/12/30 05:22:48;;;;;;;6.20;1.45;;;6.20;92.10;;;;;;5119010;28;20055;-74
2022/12/30 05:27:58;;;;;;;6.75;1.88;;;6.10;92.20;;;;;;5137426;28;20065;-74
2022/12/30 05:30:24;;;;;;;11.10;1.60;;;6.10;92.40;;;;;;5137095;28;20027;-74
2022/12/30 05:32:49;;;;;;;5.75;1.10;;;6.10;92.40;;;;;;5137078;27;20032;-73
2022/12/30 05:35:15;;;;;;;9.93;1.48;;;6.10;92.50;;;;;;5136984;28;20024;-74
2022/12/30 05:37:41;;;;;;;1.45;0.73;;;6.10;92.40;;;;;;5118824;28;20028;-74
2022/12/30 05:40:07;;;;;;;4.18;1.27;;;6.10;92.50;;;;;;5119005;28;20046;-74
2022/12/30 05:42:33;;;;;;;2.95;0.95;;;6.10;92.60;;;;;;5118980;28;20034;-74
2022/12/30 05:44:58;;;;;;;8.20;1.83;;;6.10;92.80;;;;;;5136845;28;20023;-74
2022/12/30 05:47:24;;;;;;;5.20;1.95;;;6.00;93.00;;;;;;5118838;28;20040;-74
2022/12/30 05:49:50;;;;;;;7.60;1.15;;;6.10;92.90;;;;;;5118720;28;20032;-74
2022/12/30 05:52:16;;;;;;;4.43;1.27;;;6.10;92.80;;;;;;5135908;28;20027;-74
2022/12/30 05:54:42;;;;;;;3.20;1.20;;;6.10;92.70;;;;;;5134952;28;20028;-74
2022/12/30 05:57:09;;;;;;;8.38;2.00;;;6.00;92.80;;;;;;5118382;28;20027;-74
2022/12/30 05:59:34;;;;;;;4.90;1.27;;;6.00;92.70;;;;;;5135663;28;20020;-74
2022/12/30 06:02:00;;;;;;;12.75;1.50;;;6.00;92.80;;;;;;5135456;28;20025;-74
2022/12/30 06:04:26;;;;;;;2.53;0.90;;;6.00;92.90;;;;;;5136463;28;20026;-74
2022/12/30 06:06:52;;;;;;;1.05;0.55;;;6.00;92.90;;;;;;5135446;28;20044;-74
2022/12/30 06:09:17;;;;;;;1.67;0.95;;;6.00;93.00;;;;;;5135217;28;20074;-74
2022/12/30 06:11:43;;;;;;;6.20;1.25;;;6.00;93.00;;;;;;5136320;28;20035;-74
2022/12/30 06:14:10;;;;;;;10.55;1.95;;;6.00;93.10;;;;;;5135399;28;20028;-74
2022/12/30 06:16:36;;;;;;;3.15;0.95;;;6.00;93.10;;;;;;5118196;28;20027;-74
2022/12/30 06:19:02;;;;;;;7.60;1.05;;;6.00;93.10;;;;;;5136211;28;20041;-74
2022/12/30 06:21:27;;;;;;;3.35;1.20;;;6.00;93.20;;;;;;5134905;28;20120;-73
2022/12/30 06:23:53;;;;;;;6.18;1.70;;;6.00;93.20;;;;;;5136203;28;20032;-74
2022/12/30 06:26:18;;;;;;;7.38;2.00;;;6.00;93.30;;;;;;5135144;28;20048;-74
2022/12/30 06:28:44;;;;;;;4.50;1.25;;;5.90;93.40;;;;;;5135008;28;20042;-74
2022/12/30 06:31:11;;;;;;;3.33;1.63;;;5.90;93.50;;;;;;5101013;28;20028;-73
2022/12/30 06:33:37;;;;;;;3.55;1.27;;;5.90;93.50;;;;;;5135886;28;20059;-74
2022/12/30 06:36:03;;;;;;;4.25;1.95;;;6.00;93.60;;;;;;5134802;28;20032;-74
2022/12/30 06:38:28;;;;;;;8.35;2.20;;;6.00;93.70;;;;;;5135765;28;20019;-74
2022/12/30 06:40:54;;;;;;;7.00;1.58;;;6.00;93.60;;;;;;5134743;28;20039;-74
2022/12/30 06:43:20;;;;;;;5.68;1.80;;;6.00;93.60;;;;;;5135707;28;20012;-74
2022/12/30 06:45:46;;;;;;;4.30;1.27;;;6.10;93.50;;;;;;5134684;28;20095;-74
2022/12/30 06:48:11;;;;;;;2.97;1.13;;;6.00;93.50;;;;;;5135581;28;20035;-73
2022/12/30 06:50:37;;;;;;;6.68;1.52;;;6.00;93.60;;;;;;5135648;28;20030;-74
2022/12/30 06:53:04;;;;;;;11.95;2.35;;;6.10;93.70;;;;;;5117379;28;20020;-73
2022/12/30 06:55:29;;;;;;;3.65;1.20;;;6.10;93.70;;;;;;5117481;28;20090;-74
2022/12/30 06:57:55;;;;;;;5.72;1.38;;;6.10;93.70;;;;;;5135404;28;20027;-73
2022/12/30 07:00:21;;;;;;;6.70;2.20;;;6.20;93.70;;;;;;5117375;28;20023;-73
2022/12/30 07:02:46;;;;;;;7.97;1.35;;;6.20;93.80;;;;;;5134387;28;20023;-74
2022/12/30 07:05:12;;;;;;;4.22;0.98;;;6.20;93.80;;;;;;5135281;28;20015;-74
2022/12/30 07:07:38;;;;;;;4.60;1.17;;;6.20;93.70;;;;;;5135063;28;20082;-73
2022/12/30 07:10:04;;;;;;;2.63;1.13;;;6.30;93.60;;;;;;5135151;28;20044;-73
2022/12/30 07:12:29;;;;;;;5.95;1.30;;;6.20;93.50;;;;;;5134120;28;20027;-73
2022/12/30 07:14:55;;;;;;;5.57;1.17;;;6.20;93.60;;;;;;5134034;28;20031;-73
2022/12/30 07:17:21;;;;;;;3.50;0.98;;;6.30;93.50;;;;;;5116927;28;20035;-73
2022/12/30 07:19:46;;;;;;;6.75;1.83;;;6.30;93.50;;;;;;5134018;28;20024;-73
2022/12/30 07:22:13;;;;;;;3.20;1.15;;;6.30;93.40;;;;;;5133820;28;20059;-74
2022/12/30 07:24:38;;;;;;;9.73;1.67;;;6.40;93.50;;;;;;5134011;28;20020;-74
2022/12/30 07:27:04;;;;;;;13.23;1.83;;;6.40;93.40;;;;;;5134825;28;20039;-74
2022/12/30 07:29:30;;;;;;;6.93;1.88;;;6.40;93.30;;;;;;5133738;28;20034;-74
2022/12/30 07:31:57;;;;;;;6.72;1.70;;;6.40;93.30;;;;;;5133756;28;20027;-73
2022/12/30 07:34:22;;;;;;;4.35;1.63;;;6.40;93.40;;;;;;5133672;28;20031;-74
2022/12/30 07:36:48;;;;;;;6.85;1.50;;;6.40;93.50;;;;;;5134586;28;20020;-74
2022/12/30 07:39:14;;;;;;;11.45;2.15;;;6.40;93.50;;;;;;5116545;28;20102;-73
2022/12/30 07:41:39;;;;;;;4.60;1.23;;;6.40;93.50;;;;;;5134594;28;20072;-73
2022/12/30 07:44:05;;;;;;;2.33;1.17;;;6.40;93.50;;;;;;5134513;28;20364;-74
2022/12/30 07:46:31;;;;;;;5.43;1.55;;;6.40;93.50;;;;;;5133429;28;20032;-74
2022/12/30 07:48:57;;;;;;;3.67;0.90;;;6.40;93.40;;;;;;5134513;28;20055;-73
2022/12/30 07:51:22;;;;;;;7.35;1.55;;;6.50;93.50;;;;;;5116582;28;20051;-73
2022/12/30 07:53:48;;;;;;;6.57;1.45;;;6.50;93.40;;;;;;5116434;28;20454;-74
2022/12/30 07:56:14;;;;;;;2.03;0.82;;;6.60;93.30;;;;;;5133325;28;20031;-74
2022/12/30 07:58:40;;;;;;;1.73;0.93;;;6.60;93.20;;;;;;5134347;28;20030;-74
2022/12/30 08:01:14;;;;;;;6.68;1.55;;;6.60;93.30;;;;;;5133316;28;20029;-74
2022/12/30 08:03:40;;;;;;;5.93;1.10;;;6.60;93.20;;;;;;5134199;28;20024;-74
2022/12/30 08:06:16;;;;;;;7.05;1.40;;;6.70;93.20;;;;;;5134219;28;20024;-74
2022/12/30 08:08:44;;;;;;;6.22;1.13;;;6.70;93.20;;;;;;5134133;28;20023;-74
2022/12/30 08:11:11;;;;;;;9.30;1.35;;;6.70;93.10;;;;;;5134147;28;20015;-73
2022/12/30 08:13:39;;;;;;;4.85;1.48;;;6.70;93.20;;;;;;5133152;28;20031;-73
2022/12/30 08:16:09;;;;;;;4.43;1.67;;;6.70;93.20;;;;;;5134008;28;20054;-74
2022/12/30 08:18:36;;;;;;;7.03;1.90;;;6.70;93.20;;;;;;5132837;28;20030;-74
2022/12/30 08:21:07;;;;;;;13.57;1.15;;;6.80;93.20;;;;;;5133846;28;20055;-74
2022/12/30 08:23:33;;;;;;;2.80;1.27;;;6.80;93.10;;;;;;5133158;28;20020;-74
2022/12/30 08:26:17;;;;;;;4.25;1.30;;;6.90;93.00;;;;;;5133052;28;20100;-74
2022/12/30 08:28:43;;;;;;;5.55;1.80;;;6.90;92.90;;;;;;5134019;28;20028;-74
2022/12/30 08:31:12;;;;;;;3.63;1.25;;;7.00;92.90;;;;;;5133896;28;20020;-73
2022/12/30 08:33:38;;;;;;;3.70;1.13;;;7.00;92.80;;;;;;5133922;28;20024;-73
2022/12/30 08:36:09;;;;;;;6.22;1.60;;;7.00;92.80;;;;;;5133793;28;20410;-74
2022/12/30 08:38:37;;;;;;;9.25;2.15;;;7.00;92.90;;;;;;5132831;28;20077;-74
2022/12/30 08:41:10;;;;;;;7.35;1.77;;;7.10;92.80;;;;;;5132873;28;20023;-74
2022/12/30 08:43:36;;;;;;;6.25;2.08;;;7.10;92.70;;;;;;5133828;28;20030;-74
2022/12/30 08:46:02;;;;;;;2.33;1.30;;;7.20;92.70;;;;;;5115867;28;20134;-73
2022/12/30 08:48:28;;;;;;;3.38;1.33;;;7.20;92.60;;;;;;5132742;28;20032;-74
2022/12/30 08:50:54;;;;;;;5.45;1.23;;;7.20;92.50;;;;;;5132690;28;20024;-73
2022/12/30 08:53:20;;;;;;;10.13;1.30;;;7.20;92.50;;;;;;5115953;28;20023;-73
2022/12/30 08:55:46;;;;;;;1.13;0.85;;;7.20;92.50;;;;;;5132688;28;20382;-73
2022/12/30 08:58:11;;;;;;;6.13;1.35;;;7.20;92.50;;;;;;5133633;28;20031;-73
2022/12/30 09:00:37;;;;;;;2.67;1.23;;;7.30;92.40;;;;;;5115590;28;20016;-74
2022/12/30 09:03:04;;;;;;;3.67;1.40;;;7.30;92.80;;;;;;5132758;28;20058;-73
2022/12/30 09:05:32;;;;;;;4.93;0.82;;;7.30;92.40;;;;;;5133638;28;20022;-74
2022/12/30 09:07:58;;;;;;;3.58;1.50;;;7.30;92.40;;;;;;5133527;28;20034;-74
2022/12/30 09:10:24;;;;;;;4.97;1.70;;;7.30;92.40;;;;;;5133524;28;20020;-74
2022/12/30 09:12:49;;;;;;;2.72;0.98;;;7.40;92.40;;;;;;5132506;28;20023;-73
2022/12/30 09:15:15;;;;;;;4.97;1.35;;;7.40;92.30;;;;;;5133601;28;20478;-74
2022/12/30 09:17:40;;;;;;;2.00;1.10;;;7.40;92.20;;;;;;5132476;28;20102;-74
2022/12/30 09:20:06;;;;;;;3.67;1.75;;;7.40;92.60;;;;;;5115385;28;20026;-74
2022/12/30 09:22:32;;;;;;;4.25;1.05;;;7.50;92.30;;;;;;5133285;28;20054;-74
2022/12/30 09:24:57;;;;;;;4.68;1.45;;;7.40;92.20;;;;;;5098530;28;20045;-74
2022/12/30 09:27:23;;;;;;;9.68;1.23;;;7.50;92.20;;;;;;5132440;28;20028;-74
2022/12/30 09:29:49;;;;;;;4.28;1.20;;;7.50;92.10;;;;;;5115583;28;20024;-74
2022/12/30 09:32:15;;;;;;;2.80;0.80;;;7.50;92.10;;;;;;5119125;28;20031;-74
2022/12/30 09:34:41;;;;;;;4.47;0.95;;;7.50;92.00;;;;;;5136045;28;20054;-73
2022/12/30 09:37:08;;;;;;;3.47;0.88;;;7.50;91.90;;;;;;5137080;28;20047;-74
2022/12/30 09:39:33;;;;;;;4.38;1.30;;;7.60;91.90;;;;;;5136963;28;20024;-74
2022/12/30 09:44:59;;;;;;;2.25;0.93;;;7.60;91.90;;;;;;5137130;28;20034;-74
2022/12/30 09:47:36;;;;;;;5.90;1.30;;;7.70;91.90;;;;;;5136855;28;20034;-74
2022/12/30 09:50:09;;;;;;;3.67;1.30;;;7.70;91.80;;;;;;5135773;28;20020;-74
2022/12/30 09:52:48;;;;;;;2.60;0.80;;;7.80;91.70;;;;;;5135740;28;20028;-74
2022/12/30 09:55:21;;;;;;;3.13;0.93;;;7.80;91.70;;;;;;5135627;28;20028;-74
2022/12/30 09:57:56;;;;;;;4.38;1.40;;;7.80;91.50;;;;;;5136594;28;20024;-74
2022/12/30 10:00:26;;;;;;;3.13;1.30;;;7.80;91.70;;;;;;5136610;28;20102;-74
2022/12/30 10:03:02;;;;;;;1.55;0.63;;;7.90;91.60;;;;;;5135509;28;20023;-74
2022/12/30 10:05:36;;;;;;;2.47;0.70;;;7.90;91.50;;;;;;5136639;28;20020;-74
2022/12/30 10:08:13;;;;;;;1.17;0.52;;;8.00;91.30;;;;;;5135294;28;20051;-74
2022/12/30 10:10:44;;;;;;;2.08;0.60;;;8.00;91.40;;;;;;5136519;28;20031;-74
2022/12/30 10:13:30;;;;;;;4.68;1.05;;;8.10;91.10;;;;;;5135320;28;20079;-74
2022/12/30 10:16:10;;;;;;;3.50;0.75;;;8.20;91.00;;;;;;5094500;28;20051;-74
2022/12/30 10:19:20;;;;;;;4.65;0.85;;;8.20;91.00;;;;;;5135236;28;20019;-74
2022/12/30 10:22:19;;;;;;;5.47;1.02;;;8.30;90.80;;;;;;5090754;27;20059;-74
2022/12/30 10:24:49;;;;;;;5.00;1.08;;;8.40;90.70;;;;;;5136282;28;20022;-75
2022/12/30 10:27:21;;;;;;;0.98;0.60;;;8.40;90.80;;;;;;5136058;28;20023;-74
2022/12/30 10:29:47;;;;;;;1.58;0.45;;;8.40;90.70;;;;;;5134971;28;20043;-74
2022/12/30 10:32:17;;;;;;;1.65;0.40;;;8.40;90.50;;;;;;5135908;28;20062;-74
2022/12/30 10:34:45;;;;;;;3.47;0.73;;;8.60;90.30;;;;;;5135908;28;20081;-74
2022/12/30 10:37:15;;;;;;;3.78;0.77;;;8.60;90.10;;;;;;5134843;28;20048;-74
2022/12/30 10:39:50;;;;;;;0.98;0.30;;;8.60;90.20;;;;;;5135869;28;20019;-74
2022/12/30 10:42:48;;;;;;;3.85;1.02;;;8.70;89.90;;;;;;5135356;28;20023;-74
2022/12/30 10:45:19;;;;;;;2.58;0.88;;;8.70;89.60;;;;;;5135718;28;20030;-74
2022/12/30 10:48:20;;;;;;;2.58;0.50;;;8.70;89.90;;;;;;5135635;28;20035;-75
2022/12/30 10:50:47;;;;;;;2.15;0.68;;;8.80;89.70;;;;;;5135785;28;20034;-74
2022/12/30 10:53:17;;;;;;;4.90;1.27;;;8.80;89.70;;;;;;5134631;28;20104;-75
2022/12/30 10:56:05;;;;;;;1.23;0.45;;;8.80;89.80;;;;;;5134530;28;20020;-74
2022/12/30 10:58:40;;;;;;;3.90;0.70;;;8.80;89.40;;;;;;5135307;28;20015;-74
2022/12/30 11:01:30;;;;;;;1.65;0.52;;;8.90;89.30;;;;;;5135497;28;20047;-74
2022/12/30 11:03:58;;;;;;;0.63;0.45;;;8.90;89.20;;;;;;5134633;28;20108;-74
2022/12/30 11:06:27;;;;;;;2.30;0.45;;;8.90;89.10;;;;;;5134206;28;20102;-75
2022/12/30 11:09:12;;;;;;;4.63;0.88;;;8.90;89.10;;;;;;5134150;28;20016;-74
2022/12/30 11:14:44;;;;;;;6.45;0.63;;;8.90;89.10;;;;;;5135227;28;20038;-75
2022/12/30 11:17:16;;;;;;;9.38;1.38;;;8.90;89.90;;;;;;5133964;28;20051;-74
2022/12/30 11:19:43;;;;;;;4.63;1.17;;;8.90;89.10;;;;;;5134059;28;20030;-74
2022/12/30 11:22:10;;;;;;;2.30;0.98;;;8.90;89.20;;;;;;5133848;28;20438;-74
2022/12/30 11:24:37;;;;;;;2.28;0.90;;;8.90;89.10;;;;;;5133862;28;20024;-74
2022/12/30 11:27:03;;;;;;;1.88;0.60;;;9.00;88.80;;;;;;5134901;28;20087;-74
2022/12/30 11:29:33;;;;;;;3.95;0.90;;;9.00;88.70;;;;;;5116951;28;20032;-75
2022/12/30 11:32:07;;;;;;;5.32;1.33;;;9.00;88.40;;;;;;5133728;28;20057;-74
2022/12/30 11:34:36;;;;;;;4.00;1.00;;;9.00;88.30;;;;;;5134801;28;20083;-74
2022/12/30 11:37:35;;;;;;;5.00;0.93;;;9.00;88.30;;;;;;5134607;28;20019;-74
2022/12/30 11:40:25;;;;;;;3.15;1.00;;;9.00;88.30;;;;;;5133616;28;20019;-75
2022/12/30 11:43:08;;;;;;;3.22;1.08;;;9.00;88.60;;;;;;5122789;28;20036;-75
2022/12/30 11:45:34;;;;;;;6.43;1.00;;;9.00;88.40;;;;;;5134618;27;20073;-75
2022/12/30 11:48:00;;;;;;;5.90;1.17;;;9.00;88.50;;;;;;5116598;28;20020;-75
2022/12/30 11:50:25;;;;;;;2.00;0.57;;;9.00;88.50;;;;;;5116405;28;20031;-75
2022/12/30 11:52:55;;;;;;;2.50;0.82;;;9.10;88.70;;;;;;5133700;28;20024;-75
2022/12/30 11:55:25;;;;;;;2.15;0.50;;;9.10;88.50;;;;;;5134458;28;20022;-75
2022/12/30 11:57:55;;;;;;;3.00;0.52;;;9.10;88.40;;;;;;5134351;28;20032;-75
2022/12/30 12:00:21;;;;;;;5.57;1.25;;;9.10;88.30;;;;;;5134400;28;20039;-75
2022/12/30 12:02:57;;;;;;;3.05;0.70;;;9.10;88.00;;;;;;5134269;28;20020;-75
2022/12/30 12:05:39;;;;;;;5.53;1.08;;;9.10;88.10;;;;;;5134287;28;20095;-75
2022/12/30 12:08:22;;;;;;;4.18;0.70;;;9.20;87.60;;;;;;5134201;28;20028;-75
2022/12/30 12:10:54;;;;;;;0.85;0.43;;;9.20;87.90;;;;;;5133222;28;20053;-75
2022/12/30 12:13:44;;;;;;;3.97;0.80;;;9.30;87.40;;;;;;5133113;28;20016;-75
2022/12/30 12:16:17;;;;;;;2.95;0.57;;;9.30;87.30;;;;;;5134147;28;20036;-75
2022/12/30 12:18:47;;;;;;;4.68;0.85;;;9.30;87.40;;;;;;5134102;28;20049;-75
2022/12/30 12:21:13;;;;;;;2.67;1.00;;;9.30;87.70;;;;;;5133832;28;20075;-75
2022/12/30 12:23:47;;;;;;;1.88;0.65;;;9.30;87.60;;;;;;5132878;28;20026;-74
2022/12/30 12:26:34;;;;;;;2.58;0.57;;;9.30;87.20;;;;;;5132948;28;20020;-75
2022/12/30 12:29:00;;;;;;;16.27;2.78;;;9.40;86.90;;;;;;5133969;28;20032;-75
2022/12/30 12:31:54;;;;;;;5.07;1.10;;;9.40;86.40;;;;;;5116109;28;20020;-75
2022/12/30 12:34:50;;;;;;;0.80;0.60;;;9.50;86.60;;;;;;5133883;28;20035;-75
2022/12/30 12:37:50;;;;;;;2.47;0.65;;;9.50;85.90;;;;;;5132872;28;20028;-75
2022/12/30 12:40:21;;;;;;;1.70;0.55;;;9.50;86.50;;;;;;5132915;28;20020;-75
2022/12/30 12:43:22;;;;;;;4.75;0.73;;;9.50;86.20;;;;;;5133923;28;20083;-75
2022/12/30 12:46:24;;;;;;;2.05;0.52;;;9.50;86.30;;;;;;5133810;28;20016;-75
2022/12/30 12:49:21;;;;;;;3.53;1.02;;;9.50;86.60;;;;;;5132803;28;20028;-75
2022/12/30 12:52:02;;;;;;;1.02;0.52;;;9.50;87.40;;;;;;5133886;28;20020;-75
2022/12/30 12:55:00;;;;;;;4.65;0.70;;;9.50;87.80;;;;;;5133864;28;20024;-75
2022/12/30 12:57:38;;;;;;;3.35;0.73;;;9.40;88.40;;;;;;5077186;28;20043;-75
2022/12/30 13:00:12;;;;;;;4.28;1.27;;;9.50;89.00;;;;;;5133729;28;20024;-75
2022/12/30 13:03:11;;;;;;;4.63;1.10;;;9.40;89.60;;;;;;5132648;28;20095;-75
2022/12/30 13:06:16;;;;;;;7.68;0.98;;;9.40;90.20;;;;;;5135671;28;20023;-75
2022/12/30 13:09:05;;;;;;;5.43;1.30;;;9.40;90.50;;;;;;5137625;28;20355;-75
2022/12/30 13:11:57;;;;;;;8.23;1.95;;;9.30;90.80;;;;;;5136508;28;20042;-75
2022/12/30 13:14:35;;;;;;;0.95;0.40;;;9.40;91.00;;;;;;5136496;28;20121;-75
2022/12/30 13:17:09;;;;;;;3.58;0.70;;;9.30;91.30;;;;;;5137345;28;20027;-75
2022/12/30 13:19:36;;;;;;;1.33;0.63;;;9.30;91.50;;;;;;5136468;28;20093;-75
2022/12/30 13:22:13;;;;;;;2.13;1.00;;;9.30;91.60;;;;;;5137166;28;20047;-75
2022/12/30 13:24:43;;;;;;;3.42;0.70;;;9.30;91.80;;;;;;5137472;28;20041;-75
2022/12/30 13:27:26;;;;;;;1.35;0.60;;;9.30;91.90;;;;;;5137272;28;20023;-75
2022/12/30 13:29:54;;;;;;;1.70;1.00;;;9.30;92.10;;;;;;5137387;28;20024;-75
2022/12/30 13:32:52;;;;;;;3.53;0.88;;;9.30;92.30;;;;;;5136177;28;20023;-75
2022/12/30 13:35:27;;;;;;;3.35;0.77;;;9.30;92.40;;;;;;5103875;28;20118;-75
2022/12/30 13:37:52;;;;;;;0.80;0.38;;;9.30;92.50;;;;;;5136966;28;20037;-75
2022/12/30 13:40:23;;;;;;;2.42;0.55;;;9.30;92.60;;;;;;5136980;28;20049;-75
2022/12/30 13:43:19;;;;;;;1.10;0.43;;;9.30;92.80;;;;;;5136994;28;20018;-75
2022/12/30 13:45:47;;;;;;;5.32;1.10;;;9.30;92.70;;;;;;5136942;28;20016;-74
2022/12/30 13:48:13;;;;;;;6.70;1.10;;;9.30;92.70;;;;;;5135831;28;20015;-75
2022/12/30 13:50:41;;;;;;;1.13;0.57;;;9.30;92.90;;;;;;5135743;28;20023;-75
2022/12/30 13:53:29;;;;;;;2.00;0.68;;;9.40;92.90;;;;;;5135767;28;20045;-75
2022/12/30 13:55:54;;;;;;;2.22;0.65;;;9.40;93.00;;;;;;5136591;28;20027;-75
2022/12/30 13:58:32;;;;;;;1.80;0.80;;;9.40;93.20;;;;;;5135796;28;20042;-75
2022/12/30 14:01:19;;;;;;;4.22;0.98;;;9.30;93.40;;;;;;5135610;28;20083;-75
2022/12/30 14:04:11;;;;;;;1.55;0.40;;;9.40;93.60;;;;;;5136495;28;20042;-75
2022/12/30 14:06:43;;;;;;;2.63;0.40;;;9.40;93.80;;;;;;5125623;28;20051;-75
2022/12/30 14:09:23;;;;;;;2.38;0.90;;;9.30;94.10;;;;;;5136375;28;20035;-75
2022/12/30 14:12:04;;;;;;;2.88;1.10;;;9.30;94.40;;;;;;5136437;28;20055;-75
2022/12/30 14:14:34;;;;;;;1.38;0.50;;;9.30;94.60;;;;;;5136350;28;20020;-75
2022/12/30 14:17:19;;;;;;;1.65;0.85;;;9.30;94.70;;;;;;5135368;28;20027;-75